Latest Weather Observations for Yarrawonga

IDN60801

Issued at 6:35 pm EST Wednesday 20 August 2014 (issued every 30 minutes, with the page automatically refreshed every 10 minutes)

About weather observations | Map of weather stations | Latest weather observations for NSW | Other Formats
Station Details ID: 081124 Name: YARRAWONGA Lat: -36.03 Lon: 146.03 Height: 128.9 m
Data from the previous 72 hours. | See also: Recent months at Yarrawonga
Date/Time
EST
Temp
°C
App
Temp
°C
Dew
Point
Rel
Hum
%
Delta-T
°C
Wind Press
QNH
hPa
Press
MSL
hPa
Rain
since 9 am
mm
Dir
 
Spd
km/h
Gust
km/h
Spd
kts
Gust
kts
20/06:30pm 9.9 8.1 7.3 84 1.2 SE 6 7 3 4 1024.9 - 0.0
20/06:00pm 11.4 9.7 7.7 78 1.8 SE 6 7 3 4 1024.7 1024.9 0.0
20/05:30pm 13.5 12.0 8.6 72 2.5 SE 6 7 3 4 1024.5 - 0.0
20/05:00pm 15.3 13.9 7.3 59 4.0 E 4 7 2 4 1024.4 1024.6 0.0
20/04:30pm 15.7 14.0 7.5 58 4.1 ENE 6 9 3 5 1024.3 - 0.0
20/04:00pm 16.0 14.3 7.5 57 4.2 E 6 9 3 5 1024.4 1024.6 0.0
20/03:30pm 16.1 14.1 7.3 56 4.4 NNE 7 15 4 8 1024.3 - 0.0
20/03:00pm 16.5 15.1 7.4 55 4.5 NE 4 9 2 5 1024.3 1024.5 0.0
20/02:30pm 16.4 14.5 7.6 56 4.4 N 7 11 4 6 1024.2 - 0.0
20/02:00pm 15.6 13.5 6.6 55 4.4 NNE 7 11 4 6 1024.3 1024.5 0.0
20/01:30pm 15.6 13.2 6.9 56 4.3 N 9 19 5 10 1024.5 - 0.0
20/01:00pm 15.4 13.0 6.9 57 4.2 N 9 15 5 8 1024.8 1025.0 0.0
20/12:30pm 14.9 12.0 6.5 57 4.1 N 11 19 6 10 1025.1 - 0.0
20/12:00pm 14.3 10.5 5.9 57 4.0 N 15 22 8 12 1025.4 1025.6 0.0
20/11:30am 13.7 10.0 6.3 61 3.6 NNE 15 20 8 11 1025.8 - 0.0
20/11:00am 13.4 10.1 6.5 63 3.3 NE 13 20 7 11 1025.9 1026.1 0.0
20/10:30am 12.6 8.1 6.2 65 3.0 N 19 24 10 13 1025.9 - 0.0
20/10:00am 11.6 7.9 6.3 70 2.5 NE 15 22 8 12 1025.9 1026.1 0.0
20/09:30am 11.2 7.6 6.9 75 2.1 ENE 15 22 8 12 1025.7 - 0.0
20/09:00am 9.1 6.7 7.1 87 0.9 E 9 13 5 7 1025.5 1025.7 0.0
20/08:30am 7.2 4.8 6.9 98 0.1 ESE 9 13 5 7 1025.3 - 0.0
20/08:00am 5.1 2.6 5.0 99 0.0 ESE 7 9 4 5 1025.1 1025.3 0.0
20/07:30am 2.5 -0.8 2.4 99 0.0 E 9 11 5 6 1024.8 - 0.0
20/07:00am 0.3 -3.0 0.2 99 0.0 E 7 9 4 5 1024.5 1024.7 0.0
20/06:30am 0.4 -2.3 0.3 99 0.0 ESE 4 6 2 3 1024.2 - 0.0
20/06:00am 0.5 -1.8 0.4 99 0.0 S 2 4 1 2 1023.9 1024.1 0.0
20/05:30am 0.2 -2.1 0.1 99 0.0 SSE 2 4 1 2 1023.5 - 0.0
20/05:00am 0.4 -1.5 0.3 99 0.0 CALM 0 0 0 0 1023.4 1023.6 0.0
20/04:30am 1.2 -1.0 1.1 99 0.0 SSW 2 4 1 2 1023.3 - 0.0
20/04:00am 1.1 -1.9 1.0 99 0.0 SW 6 6 3 3 1023.1 1023.3 0.0
20/03:30am 1.7 -0.8 1.6 99 0.0 SW 4 7 2 4 1022.8 - 0.0
20/03:00am 2.1 -0.9 2.0 99 0.0 SW 7 7 4 4 1022.7 1023.0 0.0
20/02:30am 2.5 -0.4 2.4 99 0.0 SW 7 9 4 5 1022.7 - 0.0
20/02:00am 2.7 -0.2 2.6 99 0.0 WSW 7 9 4 5 1022.9 1023.2 0.0
20/01:30am 3.1 0.5 3.0 99 0.0 WSW 6 7 3 4 1022.8 - 0.0
20/01:00am 3.5 0.9 3.4 99 0.0 W 6 7 3 4 1022.7 1023.0 0.0
20/12:30am 3.5 0.7 3.4 99 0.0 WSW 7 9 4 5 1022.7 - 0.0
20/12:00am 3.9 1.2 3.8 99 0.0 WSW 7 9 4 5 1022.7 1023.0 0.0
 
Date/Time
EST
Temp
°C
App
Temp
°C
Dew
Point
Rel
Hum
%
Delta-T
°C
Wind Press
QNH
hPa
Press
MSL
hPa
Rain
since 9 am
mm
Dir
 
Spd
km/h
Gust
km/h
Spd
kts
Gust
kts
19/11:30pm 4.3 1.7 4.2 99 0.0 WSW 7 9 4 5 1022.7 - 0.0
19/11:00pm 4.9 2.0 4.6 98 0.1 WSW 9 11 5 6 1022.6 1022.9 0.0
19/10:30pm 5.1 2.2 4.8 98 0.1 WSW 9 9 5 5 1022.5 - 0.0
19/10:00pm 6.2 3.6 5.9 98 0.1 WSW 9 11 5 6 1022.3 1022.5 0.0
19/09:30pm 6.3 3.7 6.0 98 0.1 WSW 9 13 5 7 1022.4 - 0.0
19/09:00pm 7.1 4.7 6.8 98 0.1 WSW 9 11 5 6 1022.3 1022.5 0.0
19/08:30pm 8.3 5.7 7.9 97 0.2 WSW 11 13 6 7 1022.2 - 0.0
19/08:00pm 9.4 7.4 8.6 95 0.4 W 9 11 5 6 1021.9 1022.1 0.0
19/07:30pm 9.1 7.0 8.3 95 0.4 WSW 9 11 5 6 1021.8 - 0.0
19/07:00pm 9.6 7.4 7.9 89 0.8 WSW 9 11 5 6 1021.5 1021.7 0.0
19/06:30pm 10.2 7.7 8.1 87 1.0 SW 11 11 6 6 1021.2 - 0.0
19/06:00pm 11.8 9.3 8.3 79 1.7 SW 11 13 6 7 1020.8 1021.0 0.0
19/05:30pm 14.4 11.3 9.0 70 2.8 SW 15 19 8 10 1020.5 - 0.0
19/05:00pm 16.1 13.5 9.3 64 3.5 SW 13 17 7 9 1020.2 1020.4 0.0
19/04:30pm 17.5 15.7 7.8 53 4.9 SSW 7 11 4 6 1020.1 - 0.0
19/04:00pm 17.8 15.4 7.0 49 5.4 SSW 9 13 5 7 1019.9 1020.1 0.0
19/03:30pm 18.4 15.7 7.2 48 5.7 SW 11 15 6 8 1019.9 - 0.0
19/03:00pm 18.4 15.8 7.8 50 5.4 SSW 11 17 6 9 1019.9 1020.1 0.0
19/02:30pm 18.1 15.4 7.2 49 5.5 SSW 11 17 6 9 1019.8 - 0.0
19/02:00pm 18.3 16.1 7.7 50 5.4 S 9 17 5 9 1019.8 1020.0 0.0
19/01:30pm 18.4 16.5 7.5 49 5.6 SSW 7 15 4 8 1019.9 - 0.0
19/01:00pm 17.9 15.8 6.7 48 5.6 SSW 7 13 4 7 1020.1 1020.3 0.0
19/12:30pm 17.3 15.4 6.8 50 5.2 SSW 6 15 3 8 1020.4 - 0.0
19/12:00pm 17.4 15.7 8.3 55 4.7 SSW 7 13 4 7 1020.7 1020.9 0.0
19/11:30am 16.7 14.9 7.9 56 4.5 S 7 13 4 7 1021.0 - 0.0
19/11:00am 16.0 14.0 8.7 62 3.7 S 9 13 5 7 1021.2 1021.4 0.0
19/10:30am 15.3 13.2 8.1 62 3.6 S 9 15 5 8 1021.2 - 0.0
19/10:00am 14.9 12.4 8.4 65 3.3 S 11 17 6 9 1021.1 1021.3 0.0
19/09:30am 13.6 10.7 8.0 69 2.8 S 13 19 7 10 1021.1 - 0.0
19/09:00am 12.4 10.5 8.9 79 1.8 SSW 9 13 5 7 1021.0 1021.2 0.0
19/08:30am 10.9 8.8 8.3 84 1.3 SSW 9 11 5 6 1020.8 - 0.0
19/08:00am 8.4 6.8 8.1 98 0.1 WSW 6 7 3 4 1020.5 1020.7 0.0
19/07:30am 6.2 3.9 5.9 98 0.1 SW 7 9 4 5 1020.1 - 0.0
19/07:00am 5.8 3.5 5.5 98 0.1 SW 7 9 4 5 1019.6 1019.8 0.0
19/06:30am 6.9 4.8 6.6 98 0.1 SW 7 11 4 6 1019.3 - 0.0
19/06:00am 7.7 5.4 7.4 98 0.1 S 9 11 5 6 1019.0 1019.2 0.0
19/05:30am 7.6 5.2 7.2 97 0.2 S 9 13 5 7 1018.8 - 0.0
19/05:00am 8.2 5.2 7.6 96 0.3 S 13 17 7 9 1018.6 1018.8 0.0
19/04:30am 8.0 5.7 7.6 97 0.2 S 9 13 5 7 1018.5 - 0.0
19/04:00am 8.8 5.8 7.6 92 0.6 S 13 15 7 8 1018.4 1018.6 0.0
19/03:30am 8.9 6.3 7.8 93 0.5 S 11 15 6 8 1018.3 - 0.0
19/03:00am 8.6 6.0 7.7 94 0.4 S 11 13 6 7 1018.3 1018.5 0.0
19/02:30am 9.6 6.6 7.7 88 0.9 S 13 15 7 8 1018.3 - 0.0
19/02:00am 10.6 7.6 7.8 83 1.4 S 13 17 7 9 1018.3 1018.5 0.0
19/01:30am 10.3 7.3 7.9 85 1.2 S 13 15 7 8 1018.3 - 0.0
19/01:00am 9.7 7.2 8.3 91 0.7 S 11 13 6 7 1018.3 1018.5 0.0
19/12:30am 9.8 7.3 8.2 90 0.8 S 11 13 6 7 1018.3 - 0.0
19/12:00am 9.1 7.0 8.3 95 0.4 S 9 11 5 6 1018.2 1018.4 0.0
 
Date/Time
EST
Temp
°C
App
Temp
°C
Dew
Point
Rel
Hum
%
Delta-T
°C
Wind Press
QNH
hPa
Press
MSL
hPa
Rain
since 9 am
mm
Dir
 
Spd
km/h
Gust
km/h
Spd
kts
Gust
kts
18/11:30pm 9.4 7.3 8.3 93 0.5 S 9 13 5 7 1018.1 - 0.0
18/11:00pm 9.5 6.9 7.9 90 0.8 S 11 13 6 7 1018.1 1018.3 0.0
18/10:30pm 10.8 8.3 8.0 83 1.4 S 11 15 6 8 1018.0 - 0.0
18/10:00pm 10.9 8.8 8.3 84 1.3 SSW 9 13 5 7 1018.0 1018.2 0.0
18/09:30pm 10.5 7.8 8.9 90 0.8 SSW 13 15 7 8 1017.7 - 0.0
18/09:00pm 10.1 7.9 9.2 94 0.4 SW 11 13 6 7 1017.5 1017.7 0.0
18/08:30pm 10.2 8.0 9.3 94 0.5 WSW 11 13 6 7 1017.2 - 0.0
18/08:00pm 10.4 8.2 9.5 94 0.5 WSW 11 13 6 7 1016.9 1017.1 0.0
18/07:30pm 10.9 8.7 9.3 90 0.8 WSW 11 13 6 7 1016.7 - 0.0
18/07:00pm 11.4 9.2 9.3 87 1.1 WSW 11 13 6 7 1016.5 1016.7 0.0
18/06:30pm 12.0 9.7 9.0 82 1.5 WSW 11 15 6 8 1016.1 - 0.0
18/06:00pm 13.4 10.5 8.0 70 2.7 SW 13 20 7 11 1015.8 1015.9 0.0
18/05:30pm 14.2 10.5 7.9 66 3.1 SSW 17 24 9 13 1015.4 - 0.0
18/05:00pm 14.9 10.9 8.4 65 3.3 SSW 19 26 10 14 1015.0 1015.1 0.0
18/04:30pm 15.2 12.0 8.4 64 3.5 SW 15 22 8 12 1014.8 - 0.0
18/04:00pm 15.6 12.0 8.4 62 3.7 S 17 24 9 13 1014.5 1014.7 0.0
18/03:30pm 15.4 11.3 8.6 64 3.5 SW 20 26 11 14 1014.3 - 0.0
18/03:00pm 15.7 10.8 8.4 62 3.7 SW 24 33 13 18 1014.3 1014.5 0.0
18/02:30pm 15.8 11.2 8.3 61 3.8 SSW 22 32 12 17 1014.2 - 0.0
18/02:00pm 16.7 12.1 8.1 57 4.4 SSW 22 33 12 18 1014.0 1014.2 0.0
18/01:30pm 17.0 11.6 8.2 56 4.5 SSW 26 35 14 19 1014.1 - 0.0
18/01:00pm 16.6 10.9 8.3 58 4.2 SSW 28 37 15 20 1014.2 1014.4 0.0
18/12:30pm 15.5 9.9 7.3 58 4.1 SSW 26 35 14 19 1014.5 - 0.0
18/12:00pm 15.1 10.4 7.6 61 3.7 SSW 22 32 12 17 1014.7 1014.9 0.0
18/11:30am 14.8 9.6 7.1 60 3.8 SSW 24 33 13 18 1015.1 - 0.0
18/11:00am 14.2 8.6 7.0 62 3.5 S 26 39 14 21 1015.1 1015.2 0.0
18/10:30am 14.0 9.6 7.3 64 3.3 SSW 20 30 11 16 1015.1 - 0.0
18/10:00am 13.6 7.5 6.5 62 3.4 S 28 37 15 20 1015.1 1015.2 0.0
18/09:30am 13.3 7.3 6.9 65 3.1 SSW 28 41 15 22 1015.1 - 0.0
18/09:00am 13.0 8.4 6.6 65 3.1 SSW 20 32 11 17 1014.7 1014.9 0.6
18/08:30am 11.6 7.6 6.7 72 2.3 SSW 17 22 9 12 1014.6 - 0.6
18/08:00am 10.4 6.7 6.5 77 1.8 SW 15 20 8 11 1014.5 1014.7 0.6
18/07:30am 9.7 6.0 6.2 79 1.6 SW 15 19 8 10 1014.5 - 0.6
18/07:00am 9.4 5.6 5.6 77 1.7 SW 15 19 8 10 1014.2 1014.4 0.6
18/06:30am 8.9 5.1 6.0 82 1.3 SW 15 19 8 10 1013.9 - 0.6
18/06:00am 8.4 5.1 6.2 86 1.0 SW 13 17 7 9 1013.5 1013.7 0.6
18/05:30am 8.4 5.0 6.0 85 1.1 SW 13 15 7 8 1013.2 - 0.6
18/05:00am 8.9 5.6 6.2 83 1.2 SW 13 17 7 9 1013.1 1013.3 0.6
18/04:30am 9.2 6.2 6.1 81 1.4 SW 11 13 6 7 1013.1 - 0.6
18/04:00am 9.7 6.3 6.1 78 1.7 SW 13 15 7 8 1012.9 1013.1 0.6
18/03:30am 10.6 6.7 5.4 70 2.4 SSW 15 22 8 12 1012.9 - 0.6
18/03:00am 11.0 6.1 5.3 68 2.6 S 20 32 11 17 1012.9 1013.1 0.6
18/02:30am 10.9 5.7 5.4 69 2.5 S 22 32 12 17 1013.1 - 0.6
18/02:00am 10.7 6.9 5.7 71 2.3 S 15 20 8 11 1013.2 1013.4 0.6
18/01:30am 10.6 6.5 6.0 73 2.1 S 17 24 9 13 1013.3 - 0.6
18/01:00am 10.4 6.7 6.4 76 1.9 SSW 15 19 8 10 1013.4 1013.6 0.6
18/12:30am 10.4 6.7 6.5 77 1.8 SSW 15 20 8 11 1013.4 - 0.6
18/12:00am 10.2 7.4 6.9 80 1.6 SSW 11 15 6 8 1013.3 1013.5 0.6
 
Date/Time
EST
Temp
°C
App
Temp
°C
Dew
Point
Rel
Hum
%
Delta-T
°C
Wind Press
QNH
hPa
Press
MSL
hPa
Rain
since 9 am
mm
Dir
 
Spd
km/h
Gust
km/h
Spd
kts
Gust
kts
17/11:30pm 10.3 6.8 7.0 80 1.6 SSW 15 19 8 10 1013.3 - 0.6
17/11:00pm 10.3 6.8 7.2 81 1.5 SSW 15 20 8 11 1013.3 1013.5 0.6
17/10:30pm 10.1 7.4 7.3 83 1.3 SSW 11 17 6 9 1013.5 - 0.6
17/10:00pm 10.2 7.2 7.6 84 1.3 SSW 13 19 7 10 1013.6 1013.8 0.6
17/09:30pm 10.4 7.4 7.8 84 1.3 SSW 13 17 7 9 1013.6 - 0.6
17/09:00pm 11.0 8.1 8.1 82 1.4 SSW 13 19 7 10 1013.6 1013.8 0.6
17/08:30pm 11.0 8.6 8.6 85 1.2 SSW 11 13 6 7 1013.6 - 0.6
17/08:00pm 11.1 8.9 8.0 81 1.5 SSW 9 11 5 6 1013.2 1013.4 0.6
17/07:30pm 11.5 9.0 8.2 80 1.6 SSW 11 13 6 7 1013.0 - 0.6
17/07:00pm 11.3 8.9 8.7 84 1.3 SSW 11 15 6 8 1012.7 1012.9 0.6

Other Formats:

Comma delimited format used in spreadsheet applications
http://www.bom.gov.au/fwo/IDN60801/IDN60801.94862.axf

JavaScript Object Notation format (JSON) in row-major order
http://www.bom.gov.au/fwo/IDN60801/IDN60801.94862.json